Huvudsida
METAR-TAF:

METAR-TAF

Flygplatser :

Portorož, Slovenien

latitud: 45-31N, longitud: 013-34E, höjd: 95 m

Aktuellt väderrapport

Denna rapport gjordes för 40 minuter sedan, klockan 13:30 UTC
Vind 9 kt från väst/nordväst
Temperatur 29°C
Fuktighet 55%
Tryck 1018 hPa
Sikt 10 km eller mer
Få moln på en höjd av 5000 ft

METAR: LJPZ 241330Z 30009KT 9999 FEW050 29/19 Q1018

Tid: 16:10 (14:10 UTC)

Väderprognos

Denna rapport gjordes för 3 timmar och 10 minuter sedan, klockan 11:00 UTC
Prognos gäller från 24 kl. 12 UTC till 24 kl. 21 UTC
Vind 8 kt från nord
Sikt 10 km eller mer
Få moln på en höjd av 5000 ft
Blir
från 24 kl. 16 UTC till 24 kl. 19 UTC
Vind 5 kt från ost/nordost

TAF: LJPZ 241100Z 2412/2421 36008KT 9999 FEW050 BECMG 2416/2419 06005KT

Aktuella väderrapporter och prognoser från 4000 flygplatser (METAR- och TAF-rapporter).

De tillgängliga stationerna syns som gula och röda prickar på kartan.

För musen över prickarna för att se namnen på stationerna.

Klicka sedan för att få väderrapporter och prognoser.

För att ändra kartan: Klicka på de gröna knapparna med ett svart kors på för att zooma in; den gröna knappen med ett streck på för att zooma ut; eller på de gröna pilarna för angränsande kartor.


METAR-TAF: